Time;durP1;ratioP1;P1;durP2;ratioP2;P2;SDS_P1;SDS_P2;PMS_P1;PMS_P2;Temp;Humidity;BMP_temperature;BMP_pressure;BME280_temperature;BME280_humidity;BME280_pressure;Samples;Min_cycle;Max_cycle;Signal;HPM_P1;HPM_P2
2022/05/25 00:00:44;;;;;;;6.65;6.05;;;13.40;74.50;;;;;;5103188;28;20118;-70
2022/05/25 00:03:10;;;;;;;6.45;5.85;;;13.40;74.90;;;;;;5102041;28;20032;-71
2022/05/25 00:05:37;;;;;;;5.97;5.38;;;13.40;75.10;;;;;;5084916;28;20024;-71
2022/05/25 00:08:03;;;;;;;5.75;5.15;;;13.40;75.20;;;;;;5108167;28;20035;-68
2022/05/25 00:10:29;;;;;;;5.97;5.30;;;13.40;75.20;;;;;;5102588;28;20032;-69
2022/05/25 00:12:55;;;;;;;6.93;6.07;;;13.40;75.10;;;;;;5104350;28;20038;-69
2022/05/25 00:15:20;;;;;;;7.43;6.43;;;13.30;75.30;;;;;;5097449;28;20024;-69
2022/05/25 00:17:47;;;;;;;6.50;5.65;;;13.30;75.40;;;;;;5102271;28;20105;-69
2022/05/25 00:20:13;;;;;;;6.55;5.85;;;13.30;75.40;;;;;;5099853;28;20472;-69
2022/05/25 00:22:41;;;;;;;6.70;6.10;;;13.30;75.60;;;;;;5088952;28;20112;-69
2022/05/25 00:25:09;;;;;;;6.70;6.00;;;13.30;75.60;;;;;;5082682;28;20498;-69
2022/05/25 00:27:34;;;;;;;6.20;5.22;;;13.20;75.80;;;;;;5087791;28;20025;-69
2022/05/25 00:30:01;;;;;;;5.90;5.30;;;13.20;75.90;;;;;;5108804;28;20430;-69
2022/05/25 00:32:26;;;;;;;6.55;5.38;;;13.20;75.70;;;;;;5109476;28;20034;-69
2022/05/25 00:34:52;;;;;;;8.45;5.63;;;13.20;75.70;;;;;;5085762;28;20020;-68
2022/05/25 00:37:17;;;;;;;5.55;5.00;;;13.20;75.80;;;;;;5098410;28;20738;-69
2022/05/25 00:39:43;;;;;;;4.38;3.97;;;13.20;75.80;;;;;;5106977;28;20055;-69
2022/05/25 00:42:08;;;;;;;6.28;5.68;;;13.30;75.60;;;;;;5104855;28;20092;-69
2022/05/25 00:44:34;;;;;;;7.35;5.13;;;13.20;75.70;;;;;;5073662;28;20036;-70
2022/05/25 00:47:00;;;;;;;6.72;6.00;;;13.20;75.80;;;;;;5111740;28;20030;-69
2022/05/25 00:49:28;;;;;;;6.60;5.85;;;13.20;75.80;;;;;;5102368;28;20600;-69
2022/05/25 00:52:01;;;;;;;7.70;6.90;;;13.20;75.90;;;;;;5099460;28;20366;-69
2022/05/25 00:54:32;;;;;;;7.50;6.75;;;13.10;75.90;;;;;;5099090;28;20135;-69
2022/05/25 00:57:12;;;;;;;7.10;6.40;;;13.10;76.20;;;;;;5095766;28;20011;-69
2022/05/25 01:00:08;;;;;;;7.25;6.50;;;13.00;76.40;;;;;;5084166;28;20128;-70
2022/05/25 01:02:36;;;;;;;9.63;8.23;;;13.00;76.40;;;;;;5100852;28;20038;-68
2022/05/25 01:05:03;;;;;;;9.80;7.80;;;12.90;76.80;;;;;;5108863;28;20209;-69
2022/05/25 01:07:28;;;;;;;9.05;7.72;;;12.80;77.30;;;;;;5107640;28;20027;-69
2022/05/25 01:10:00;;;;;;;8.35;7.40;;;12.80;77.50;;;;;;5105813;28;20054;-69
2022/05/25 01:12:32;;;;;;;8.82;7.72;;;12.70;77.60;;;;;;5092305;28;20034;-68
2022/05/25 01:15:03;;;;;;;8.77;7.85;;;12.70;78.00;;;;;;5104319;28;20394;-68
2022/05/25 01:17:47;;;;;;;8.60;7.70;;;12.70;78.00;;;;;;5106889;28;20050;-68
2022/05/25 01:20:42;;;;;;;7.82;7.03;;;12.70;78.40;;;;;;5106170;28;20034;-67
2022/05/25 01:23:50;;;;;;;8.75;7.85;;;12.60;78.50;;;;;;5103285;28;20476;-67
2022/05/25 01:26:46;;;;;;;7.68;6.80;;;12.60;78.60;;;;;;5065688;28;20027;-69
2022/05/25 01:29:39;;;;;;;8.20;6.95;;;12.60;79.20;;;;;;5111252;28;20027;-69
2022/05/25 01:32:28;;;;;;;7.90;6.82;;;12.60;78.70;;;;;;5095405;28;20028;-69
2022/05/25 01:35:07;;;;;;;8.25;6.30;;;12.60;78.60;;;;;;5109786;28;20086;-68
2022/05/25 01:37:48;;;;;;;8.57;6.93;;;12.60;78.70;;;;;;5100291;28;20035;-68
2022/05/25 01:40:30;;;;;;;7.53;6.60;;;12.60;78.70;;;;;;5110474;28;20475;-69
2022/05/25 01:43:04;;;;;;;7.97;7.18;;;12.50;78.80;;;;;;5107276;28;20038;-69
2022/05/25 01:45:33;;;;;;;7.10;6.40;;;12.50;78.90;;;;;;5109845;28;20066;-70
2022/05/25 01:48:04;;;;;;;9.02;6.90;;;12.50;78.90;;;;;;5089334;28;20051;-70
2022/05/25 01:50:35;;;;;;;7.43;6.13;;;12.50;78.90;;;;;;5108874;28;20024;-70
2022/05/25 01:53:04;;;;;;;7.68;6.88;;;12.50;78.80;;;;;;5096297;28;20106;-70
2022/05/25 01:55:34;;;;;;;7.03;6.07;;;12.50;78.80;;;;;;5109735;28;20016;-69
2022/05/25 01:58:08;;;;;;;7.22;6.53;;;12.40;78.80;;;;;;5091222;28;20023;-69
2022/05/25 02:00:46;;;;;;;9.05;8.02;;;12.40;78.80;;;;;;5097344;28;20030;-70
2022/05/25 02:06:04;;;;;;;7.35;6.50;;;12.30;79.20;;;;;;5089952;28;20046;-70
2022/05/25 02:08:44;;;;;;;7.45;6.15;;;12.30;79.20;;;;;;5096761;28;20733;-69
2022/05/25 02:11:31;;;;;;;8.00;6.40;;;12.30;79.20;;;;;;5087196;28;20103;-70
2022/05/25 02:14:24;;;;;;;7.88;6.80;;;12.30;79.20;;;;;;5091844;28;20019;-68
2022/05/25 02:17:20;;;;;;;7.60;6.43;;;12.30;79.10;;;;;;5095773;28;20028;-70
2022/05/25 02:19:55;;;;;;;7.15;6.45;;;12.30;79.10;;;;;;5088388;28;20577;-68
2022/05/25 02:22:29;;;;;;;7.85;7.03;;;12.30;79.40;;;;;;5088125;28;20085;-67
2022/05/25 02:24:57;;;;;;;6.05;5.45;;;12.30;79.30;;;;;;5110602;28;20543;-67
2022/05/25 02:27:39;;;;;;;7.47;6.07;;;12.30;79.30;;;;;;5094476;28;20036;-68
2022/05/25 02:30:13;;;;;;;7.80;6.53;;;12.30;79.20;;;;;;5080738;28;20490;-67
2022/05/25 02:32:46;;;;;;;7.78;6.82;;;12.30;79.80;;;;;;5074484;28;20059;-67
2022/05/25 02:35:14;;;;;;;6.70;5.30;;;12.20;79.20;;;;;;5095119;28;20030;-68
2022/05/25 02:37:40;;;;;;;6.97;5.68;;;12.20;79.20;;;;;;5102214;28;20012;-68
2022/05/25 02:40:08;;;;;;;7.45;5.90;;;12.20;79.10;;;;;;5110469;28;20015;-68
2022/05/25 02:42:37;;;;;;;6.63;5.80;;;12.20;79.00;;;;;;5108426;28;20489;-69
2022/05/25 02:45:03;;;;;;;7.88;5.78;;;12.20;78.90;;;;;;5125237;28;20033;-68
2022/05/25 02:47:29;;;;;;;8.13;6.20;;;12.30;78.90;;;;;;5090720;28;20031;-69
2022/05/25 02:49:54;;;;;;;7.75;6.13;;;12.30;78.90;;;;;;5072547;28;20027;-69
2022/05/25 02:52:20;;;;;;;6.75;5.80;;;12.20;78.80;;;;;;5110651;28;20584;-69
2022/05/25 02:54:46;;;;;;;6.28;5.47;;;12.30;78.80;;;;;;5092090;28;20028;-69
2022/05/25 02:57:12;;;;;;;6.53;5.70;;;12.30;78.70;;;;;;5089270;28;20017;-69
2022/05/25 02:59:37;;;;;;;7.28;5.72;;;12.30;78.80;;;;;;5096967;28;20028;-69
2022/05/25 03:02:04;;;;;;;6.40;5.15;;;12.30;78.70;;;;;;5095987;28;20385;-68
2022/05/25 03:04:31;;;;;;;10.30;7.15;;;12.30;78.60;;;;;;5096080;28;20043;-68
2022/05/25 03:06:56;;;;;;;8.43;6.53;;;12.30;78.70;;;;;;5100637;28;20027;-69
2022/05/25 03:09:22;;;;;;;9.95;7.55;;;12.30;78.70;;;;;;5109013;28;20034;-68
2022/05/25 03:11:47;;;;;;;6.78;6.07;;;12.20;78.70;;;;;;5129151;28;20056;-69
2022/05/25 03:14:13;;;;;;;8.00;6.90;;;12.20;78.80;;;;;;5108865;28;20024;-69
2022/05/25 03:16:38;;;;;;;6.78;6.07;;;12.10;78.80;;;;;;5093178;28;20091;-69
2022/05/25 03:19:04;;;;;;;7.40;6.43;;;12.10;78.90;;;;;;5116433;28;20507;-69
2022/05/25 03:21:29;;;;;;;7.22;6.13;;;12.10;78.90;;;;;;5104826;28;20043;-68
2022/05/25 03:23:55;;;;;;;6.90;6.20;;;12.10;79.00;;;;;;5105589;28;20438;-68
2022/05/25 03:26:20;;;;;;;6.63;5.55;;;12.10;79.10;;;;;;5101645;28;20168;-68
2022/05/25 03:28:46;;;;;;;9.07;7.72;;;12.10;79.00;;;;;;5115495;28;20054;-70
2022/05/25 03:31:12;;;;;;;9.57;7.53;;;12.00;79.10;;;;;;5102867;28;20059;-69
2022/05/25 03:33:37;;;;;;;8.65;6.70;;;12.00;79.20;;;;;;5089180;28;20123;-70
2022/05/25 03:36:04;;;;;;;7.03;5.93;;;12.00;79.30;;;;;;5096696;28;20069;-70
2022/05/25 03:38:30;;;;;;;8.20;6.28;;;12.00;79.30;;;;;;5097270;28;20108;-69
2022/05/25 03:40:58;;;;;;;7.55;6.35;;;12.00;79.10;;;;;;5097311;28;20043;-69
2022/05/25 03:43:31;;;;;;;6.30;5.28;;;12.00;79.20;;;;;;5074296;28;20029;-69
2022/05/25 03:45:56;;;;;;;7.22;6.28;;;12.00;79.10;;;;;;5095722;28;20024;-69
2022/05/25 03:48:22;;;;;;;7.22;6.40;;;12.00;79.10;;;;;;5113184;28;20111;-68
2022/05/25 03:50:47;;;;;;;9.05;6.75;;;12.00;79.20;;;;;;5104808;28;20103;-70
2022/05/25 03:53:14;;;;;;;7.18;6.20;;;12.00;79.20;;;;;;5102600;28;20031;-70
2022/05/25 03:55:41;;;;;;;8.65;6.93;;;12.00;79.30;;;;;;5095912;28;20025;-68
2022/05/25 03:58:07;;;;;;;6.50;5.68;;;11.90;79.40;;;;;;5113287;28;20050;-69
2022/05/25 04:00:33;;;;;;;6.75;5.97;;;12.00;79.40;;;;;;5099122;28;20020;-69
2022/05/25 04:03:02;;;;;;;7.65;6.03;;;12.00;79.30;;;;;;5102629;28;20137;-69
2022/05/25 04:05:28;;;;;;;7.22;5.72;;;12.00;79.30;;;;;;5101032;28;20061;-67
2022/05/25 04:07:58;;;;;;;8.25;6.90;;;12.00;79.40;;;;;;5104184;28;20054;-68
2022/05/25 04:10:25;;;;;;;9.30;7.20;;;12.00;79.40;;;;;;5107744;28;20035;-68
2022/05/25 04:12:50;;;;;;;6.60;5.85;;;11.90;79.60;;;;;;5107923;28;20051;-68
2022/05/25 04:15:20;;;;;;;6.82;5.28;;;12.00;79.60;;;;;;5105920;28;20374;-71
2022/05/25 04:17:46;;;;;;;7.72;5.80;;;12.10;79.60;;;;;;5091194;28;20385;-70
2022/05/25 04:20:13;;;;;;;7.18;5.75;;;12.20;79.20;;;;;;5110565;28;20020;-70
2022/05/25 04:22:40;;;;;;;8.65;5.80;;;12.20;79.10;;;;;;5100974;28;20038;-70
2022/05/25 04:25:10;;;;;;;6.97;5.55;;;12.20;79.10;;;;;;5083084;28;20049;-70
2022/05/25 04:27:36;;;;;;;7.00;5.38;;;12.30;79.10;;;;;;5102506;28;20085;-71
2022/05/25 04:30:03;;;;;;;8.25;6.53;;;12.30;79.00;;;;;;5113116;28;20030;-71
2022/05/25 04:32:29;;;;;;;9.73;7.13;;;12.30;78.80;;;;;;5103110;28;20035;-71
2022/05/25 04:34:57;;;;;;;10.73;8.05;;;12.30;78.90;;;;;;5089863;28;20008;-70
2022/05/25 04:40:07;;;;;;;7.95;5.60;;;12.30;79.20;;;;;;5094672;28;20030;-70
2022/05/25 04:42:32;;;;;;;9.60;7.18;;;12.30;79.10;;;;;;5090221;28;20540;-69
2022/05/25 04:45:00;;;;;;;9.32;7.72;;;12.30;79.30;;;;;;5082009;28;20024;-70
2022/05/25 04:47:30;;;;;;;10.45;7.90;;;12.30;79.20;;;;;;5085652;28;20032;-69
2022/05/25 04:49:56;;;;;;;11.57;7.82;;;12.40;79.40;;;;;;5088960;28;20024;-69
2022/05/25 04:52:22;;;;;;;9.68;7.10;;;12.40;79.50;;;;;;5085475;28;20034;-68
2022/05/25 04:54:47;;;;;;;9.30;7.68;;;12.40;79.50;;;;;;5095578;28;20381;-68
2022/05/25 04:57:19;;;;;;;13.38;10.00;;;12.40;79.40;;;;;;5093399;28;20562;-68
2022/05/25 04:59:51;;;;;;;9.18;6.78;;;12.60;79.90;;;;;;5105542;28;20030;-68
2022/05/25 05:02:17;;;;;;;;;;;13.30;79.00;;;;;;5097313;28;20035;-69
2022/05/25 05:04:44;;;;;;;10.98;8.35;;;14.20;76.80;;;;;;5111103;28;19911;-69
2022/05/25 05:07:10;;;;;;;11.38;9.18;;;14.80;74.30;;;;;;5082306;28;20031;-69
2022/05/25 05:09:37;;;;;;;9.25;7.55;;;15.20;72.00;;;;;;5069191;28;20085;-67
2022/05/25 05:12:03;;;;;;;7.82;6.97;;;15.60;70.70;;;;;;5089075;28;20417;-68
2022/05/25 05:14:28;;;;;;;7.97;6.40;;;16.20;68.90;;;;;;5106330;28;20384;-67
2022/05/25 05:16:59;;;;;;;10.00;7.22;;;16.70;67.50;;;;;;5071695;28;20103;-67
2022/05/25 05:19:25;;;;;;;5.65;4.80;;;17.00;66.70;;;;;;5094335;28;20051;-68
2022/05/25 05:21:54;;;;;;;8.27;5.90;;;17.40;65.30;;;;;;5078666;28;20044;-68
2022/05/25 05:24:20;;;;;;;6.95;6.10;;;17.80;64.20;;;;;;5094063;28;20433;-68
2022/05/25 05:26:46;;;;;;;10.73;7.03;;;18.00;63.20;;;;;;5095558;28;20034;-68
2022/05/25 05:29:11;;;;;;;7.68;6.13;;;17.90;62.60;;;;;;5096307;28;20019;-67
2022/05/25 05:31:37;;;;;;;8.45;6.43;;;18.20;62.40;;;;;;5083128;28;20024;-68
2022/05/25 05:34:03;;;;;;;8.93;6.50;;;18.40;61.30;;;;;;5096003;28;20024;-68
2022/05/25 05:36:34;;;;;;;6.85;5.28;;;18.50;61.10;;;;;;5105042;28;20022;-68
2022/05/25 05:39:03;;;;;;;7.68;5.90;;;18.70;60.90;;;;;;5088273;28;20452;-68
2022/05/25 05:41:52;;;;;;;7.35;5.85;;;18.80;60.30;;;;;;5083798;28;20028;-68
2022/05/25 05:44:22;;;;;;;6.88;4.88;;;18.80;60.00;;;;;;5086080;28;20028;-68
2022/05/25 05:46:50;;;;;;;7.38;5.82;;;18.80;60.20;;;;;;5090183;28;20555;-68
2022/05/25 05:49:16;;;;;;;7.38;5.00;;;18.80;60.00;;;;;;5098813;28;20031;-70
2022/05/25 05:51:42;;;;;;;7.65;5.05;;;18.50;60.30;;;;;;5093104;28;20020;-69
2022/05/25 05:54:08;;;;;;;6.10;4.38;;;18.20;61.20;;;;;;5085822;28;20020;-69
2022/05/25 05:56:34;;;;;;;7.03;4.68;;;18.60;60.90;;;;;;5074316;28;20390;-69
2022/05/25 05:59:01;;;;;;;7.28;5.38;;;18.60;61.00;;;;;;5087531;28;20449;-69
2022/05/25 06:01:27;;;;;;;7.43;5.15;;;18.70;60.50;;;;;;5104694;28;20034;-69
2022/05/25 06:03:53;;;;;;;7.68;4.30;;;18.60;60.20;;;;;;5103673;28;20023;-68
2022/05/25 06:06:18;;;;;;;5.25;4.22;;;18.90;60.10;;;;;;5096799;28;20032;-68
2022/05/25 06:08:46;;;;;;;6.88;5.03;;;19.30;59.60;;;;;;5094014;28;20451;-69
2022/05/25 06:11:13;;;;;;;6.07;4.40;;;19.40;58.90;;;;;;5092625;28;20101;-68
2022/05/25 06:13:39;;;;;;;4.32;3.42;;;19.20;59.30;;;;;;5083277;28;20103;-68
2022/05/25 06:21:33;;;;;;;5.57;3.60;;;20.00;58.70;;;;;;5089882;28;20055;-68
2022/05/25 06:23:59;;;;;;;5.80;3.85;;;20.20;58.60;;;;;;5083045;28;20394;-67
2022/05/25 06:26:27;;;;;;;6.07;4.40;;;20.10;58.80;;;;;;5082970;28;20069;-68
2022/05/25 06:28:53;;;;;;;6.70;4.20;;;19.90;59.10;;;;;;5087613;28;20050;-68
2022/05/25 06:31:19;;;;;;;6.22;4.72;;;19.50;60.00;;;;;;5083585;28;20093;-68
2022/05/25 06:33:45;;;;;;;8.05;3.95;;;19.00;60.80;;;;;;5081428;28;20559;-68
2022/05/25 06:36:19;;;;;;;8.52;6.00;;;18.80;61.60;;;;;;5096431;28;20103;-67
2022/05/25 06:38:46;;;;;;;8.55;5.30;;;18.40;61.40;;;;;;5088367;28;20494;-68
2022/05/25 06:41:12;;;;;;;7.22;4.63;;;17.80;62.30;;;;;;5069633;28;20497;-67
2022/05/25 06:43:37;;;;;;;5.55;4.20;;;17.70;63.40;;;;;;5091987;28;20025;-67
2022/05/25 06:46:06;;;;;;;4.97;3.55;;;17.50;63.90;;;;;;5090836;28;20097;-67
2022/05/25 06:48:31;;;;;;;5.70;3.97;;;17.60;64.40;;;;;;5081842;28;20024;-68
2022/05/25 06:50:57;;;;;;;6.53;4.25;;;17.70;64.30;;;;;;5101998;28;20042;-68
2022/05/25 06:53:22;;;;;;;5.60;4.03;;;17.70;64.40;;;;;;5085337;28;20033;-68
2022/05/25 06:55:48;;;;;;;4.55;3.70;;;17.80;64.40;;;;;;5082337;28;20454;-68
2022/05/25 06:58:13;;;;;;;8.13;5.40;;;17.70;64.40;;;;;;5079287;28;20028;-68
2022/05/25 07:00:39;;;;;;;6.38;4.22;;;17.60;64.00;;;;;;5082893;28;20028;-68
2022/05/25 07:03:06;;;;;;;5.70;3.95;;;17.70;64.30;;;;;;5092215;28;20103;-67
2022/05/25 07:05:32;;;;;;;9.15;5.25;;;17.80;64.10;;;;;;5086573;28;20028;-67
2022/05/25 07:07:58;;;;;;;7.05;4.70;;;17.90;63.60;;;;;;5096877;28;20039;-67
2022/05/25 07:10:23;;;;;;;7.53;4.93;;;17.80;63.50;;;;;;5090848;28;20028;-67
2022/05/25 07:12:49;;;;;;;8.85;5.25;;;17.80;63.40;;;;;;5101259;28;20027;-67
2022/05/25 07:15:14;;;;;;;8.48;5.32;;;17.60;63.20;;;;;;5086144;28;20028;-67
2022/05/25 07:17:40;;;;;;;5.90;4.03;;;17.50;63.50;;;;;;5098187;28;20105;-67
2022/05/25 07:20:09;;;;;;;6.72;4.00;;;17.50;64.10;;;;;;5088895;28;20032;-67
2022/05/25 07:22:35;;;;;;;7.35;4.90;;;17.70;64.10;;;;;;5083833;28;20024;-67
2022/05/25 07:25:01;;;;;;;6.40;3.90;;;17.80;63.70;;;;;;5099034;28;20562;-67
2022/05/25 07:27:26;;;;;;;6.55;3.47;;;17.90;63.60;;;;;;5092050;28;20044;-67
2022/05/25 07:29:52;;;;;;;7.53;4.03;;;18.10;63.40;;;;;;5088265;28;20054;-68
2022/05/25 07:32:19;;;;;;;4.20;3.08;;;18.20;63.20;;;;;;5094761;28;20095;-69
2022/05/25 07:34:48;;;;;;;5.68;4.00;;;18.40;63.00;;;;;;5079905;28;20024;-68
2022/05/25 07:37:15;;;;;;;5.35;3.50;;;18.70;62.40;;;;;;5066505;28;20094;-68
2022/05/25 07:39:48;;;;;;;4.68;3.40;;;18.70;62.00;;;;;;5096469;28;20074;-68
2022/05/25 07:42:15;;;;;;;7.50;3.22;;;18.70;61.70;;;;;;5072839;28;20054;-68
2022/05/25 07:44:48;;;;;;;3.83;3.20;;;18.70;61.80;;;;;;5083656;28;20024;-68
2022/05/25 07:47:14;;;;;;;9.85;5.30;;;18.80;61.80;;;;;;5083458;28;20478;-68
2022/05/25 07:49:41;;;;;;;7.60;4.50;;;18.90;61.00;;;;;;5089302;28;20056;-68
2022/05/25 07:52:07;;;;;;;4.60;3.35;;;18.80;60.80;;;;;;5087238;28;20042;-67
2022/05/25 07:54:32;;;;;;;6.60;4.05;;;18.80;61.10;;;;;;5090702;28;20024;-67
2022/05/25 07:56:59;;;;;;;5.50;3.50;;;18.70;61.00;;;;;;5090442;28;20024;-69
2022/05/25 07:59:25;;;;;;;6.07;3.95;;;18.70;61.40;;;;;;5092648;28;20018;-67
2022/05/25 08:07:31;;;;;;;6.53;4.68;;;18.70;61.50;;;;;;5085758;28;20051;-66
2022/05/25 08:10:10;;;;;;;5.95;3.97;;;18.50;61.50;;;;;;5090529;28;20031;-67
2022/05/25 08:12:38;;;;;;;8.35;5.00;;;18.60;61.90;;;;;;5089927;28;20662;-68
2022/05/25 08:15:05;;;;;;;6.47;4.20;;;18.80;61.50;;;;;;5084759;28;22119;-66
2022/05/25 08:17:31;;;;;;;4.93;3.28;;;18.90;61.30;;;;;;5090455;28;20074;-67
2022/05/25 08:19:56;;;;;;;5.80;4.20;;;18.80;61.30;;;;;;5088667;28;20032;-67
2022/05/25 08:22:22;;;;;;;6.68;4.95;;;18.80;61.30;;;;;;5098538;28;20041;-68
2022/05/25 08:24:48;;;;;;;4.40;3.85;;;18.80;61.00;;;;;;5091264;28;20992;-67
2022/05/25 08:27:13;;;;;;;6.90;5.30;;;18.70;61.10;;;;;;5092001;28;20027;-68
2022/05/25 08:29:39;;;;;;;5.82;4.80;;;18.70;61.30;;;;;;5088141;28;20058;-67
2022/05/25 08:32:05;;;;;;;4.57;4.18;;;18.70;61.40;;;;;;5069209;28;20108;-68
2022/05/25 08:34:31;;;;;;;6.00;4.32;;;18.80;61.90;;;;;;5086720;28;20371;-68
2022/05/25 08:36:57;;;;;;;6.30;4.60;;;18.90;61.00;;;;;;5088620;28;20103;-68
2022/05/25 08:39:23;;;;;;;4.13;3.72;;;19.00;60.60;;;;;;5086020;28;20123;-68
2022/05/25 08:41:52;;;;;;;7.53;5.88;;;19.20;60.50;;;;;;5088565;28;20064;-68
2022/05/25 08:44:19;;;;;;;8.07;5.15;;;19.20;59.70;;;;;;5092502;28;20070;-68
2022/05/25 08:46:45;;;;;;;6.63;4.75;;;19.10;59.10;;;;;;5099162;28;20026;-69
2022/05/25 08:49:14;;;;;;;5.93;3.22;;;19.20;59.50;;;;;;5091196;28;20110;-68
2022/05/25 08:51:42;;;;;;;5.35;4.70;;;19.40;60.00;;;;;;5088447;28;20037;-69
2022/05/25 08:54:07;;;;;;;8.20;6.40;;;19.40;58.90;;;;;;5084737;28;20028;-68
2022/05/25 08:56:45;;;;;;;5.88;5.13;;;19.20;57.90;;;;;;5090135;28;20032;-68
2022/05/25 08:59:21;;;;;;;6.68;5.78;;;19.20;58.60;;;;;;5081644;28;20093;-68
2022/05/25 09:02:12;;;;;;;7.68;5.32;;;19.40;58.70;;;;;;5087897;28;20067;-68
2022/05/25 09:04:48;;;;;;;4.95;3.72;;;19.60;58.40;;;;;;5079106;28;20024;-68
2022/05/25 09:07:37;;;;;;;7.05;5.88;;;19.80;58.30;;;;;;5087872;28;20031;-68
2022/05/25 09:10:03;;;;;;;5.97;5.47;;;20.00;57.50;;;;;;5087333;28;20044;-69
2022/05/25 09:12:44;;;;;;;5.75;5.18;;;20.00;56.70;;;;;;5085793;28;20028;-68
2022/05/25 09:15:23;;;;;;;8.13;6.78;;;19.90;56.90;;;;;;5085989;28;20024;-68
2022/05/25 09:18:02;;;;;;;5.40;4.90;;;19.90;56.80;;;;;;5113724;28;20024;-68
2022/05/25 09:20:34;;;;;;;7.05;6.15;;;19.90;56.80;;;;;;5086517;28;20020;-68
2022/05/25 09:22:59;;;;;;;6.07;5.43;;;19.80;56.60;;;;;;5088901;28;20387;-68
2022/05/25 09:25:26;;;;;;;8.00;6.78;;;19.80;56.50;;;;;;5089163;28;20031;-67
2022/05/25 09:28:03;;;;;;;8.57;7.57;;;19.80;56.70;;;;;;5075200;28;20031;-68
2022/05/25 09:30:31;;;;;;;8.73;7.88;;;19.80;56.50;;;;;;5080315;28;20031;-67
2022/05/25 09:33:10;;;;;;;8.25;6.90;;;19.80;56.30;;;;;;5077561;28;20074;-68
2022/05/25 09:35:43;;;;;;;9.23;8.20;;;19.70;56.60;;;;;;5086680;28;20030;-68
2022/05/25 09:38:16;;;;;;;12.70;10.55;;;19.80;56.70;;;;;;5086644;28;20020;-68
2022/05/25 09:40:49;;;;;;;14.10;10.20;;;19.90;56.60;;;;;;5087640;28;20024;-68
2022/05/25 09:43:21;;;;;;;12.98;11.60;;;20.00;56.70;;;;;;5090065;28;20875;-68
2022/05/25 09:45:52;;;;;;;12.20;10.65;;;20.00;56.50;;;;;;5090162;28;20020;-68
2022/05/25 09:48:24;;;;;;;11.00;9.88;;;20.00;56.30;;;;;;5089446;28;20059;-68
2022/05/25 09:50:59;;;;;;;10.30;9.13;;;20.00;56.10;;;;;;5088741;28;20475;-68
2022/05/25 09:53:37;;;;;;;15.57;14.00;;;20.10;56.30;;;;;;5087895;28;20050;-68
2022/05/25 09:56:09;;;;;;;11.50;10.30;;;20.00;56.00;;;;;;5090278;28;20020;-68
2022/05/25 09:58:47;;;;;;;11.48;10.32;;;20.20;56.20;;;;;;5087692;28;20056;-68
2022/05/25 10:01:33;;;;;;;13.45;12.05;;;20.30;55.90;;;;;;5088690;28;20089;-69
2022/05/25 10:04:01;;;;;;;12.13;10.10;;;20.40;55.50;;;;;;5085189;28;20023;-68
2022/05/25 10:06:29;;;;;;;11.38;10.02;;;20.50;55.20;;;;;;5091136;28;20043;-68
2022/05/25 10:09:19;;;;;;;11.13;9.57;;;20.60;55.50;;;;;;5090583;28;20030;-68
2022/05/25 10:11:46;;;;;;;10.00;9.00;;;20.60;54.20;;;;;;5085638;28;20027;-68
2022/05/25 10:14:34;;;;;;;9.88;8.88;;;20.70;54.00;;;;;;5095049;28;20026;-68
2022/05/25 10:17:12;;;;;;;10.13;8.55;;;21.00;53.90;;;;;;5086658;28;20106;-68
2022/05/25 10:19:54;;;;;;;9.80;8.88;;;20.90;53.20;;;;;;5081357;28;20043;-68
2022/05/25 10:22:42;;;;;;;9.25;8.13;;;21.00;53.30;;;;;;5087091;28;20054;-68
2022/05/25 10:25:25;;;;;;;12.55;10.43;;;21.00;52.90;;;;;;5083122;28;20080;-67
2022/05/25 10:27:51;;;;;;;8.10;7.30;;;21.00;52.10;;;;;;5086403;28;20032;-67
2022/05/25 10:36:47;;;;;;;7.38;6.30;;;21.30;51.20;;;;;;5085073;28;20395;-67
2022/05/25 10:39:26;;;;;;;8.00;7.30;;;21.30;51.20;;;;;;5088162;28;20020;-68
2022/05/25 10:41:57;;;;;;;8.43;7.63;;;21.10;51.20;;;;;;5095982;28;20034;-68
2022/05/25 10:44:26;;;;;;;6.85;6.15;;;20.90;51.10;;;;;;5090702;28;20032;-67
2022/05/25 10:46:59;;;;;;;6.15;5.55;;;20.80;51.20;;;;;;5088651;28;20054;-68
2022/05/25 10:49:32;;;;;;;6.55;5.57;;;20.70;51.80;;;;;;5078630;28;20032;-67
2022/05/25 10:52:05;;;;;;;6.50;5.90;;;20.70;51.80;;;;;;5088749;28;20027;-67
2022/05/25 10:54:47;;;;;;;5.43;4.90;;;20.70;51.90;;;;;;5085698;28;20035;-67
2022/05/25 10:57:32;;;;;;;5.40;4.60;;;20.80;51.50;;;;;;5080172;28;20489;-67
2022/05/25 11:00:09;;;;;;;5.07;4.35;;;20.80;51.20;;;;;;5084515;28;20073;-67
2022/05/25 11:03:00;;;;;;;5.35;4.38;;;20.80;50.90;;;;;;5089197;28;20043;-68
2022/05/25 11:06:02;;;;;;;5.95;4.13;;;20.70;50.70;;;;;;5084514;28;20533;-68
2022/05/25 11:08:47;;;;;;;4.32;3.78;;;20.50;51.10;;;;;;5094290;28;20035;-68
2022/05/25 11:11:43;;;;;;;4.53;4.05;;;20.30;51.40;;;;;;5088565;28;20046;-68
2022/05/25 11:14:37;;;;;;;4.25;3.15;;;20.20;51.90;;;;;;5081733;28;20025;-67
2022/05/25 11:17:21;;;;;;;4.03;3.60;;;20.00;52.20;;;;;;5080128;28;20082;-67
2022/05/25 11:20:03;;;;;;;3.80;2.92;;;20.00;52.20;;;;;;5102988;28;20177;-67
2022/05/25 11:22:39;;;;;;;3.50;3.00;;;20.20;52.20;;;;;;5091357;28;20035;-67
2022/05/25 11:25:24;;;;;;;2.92;2.00;;;20.30;51.60;;;;;;5086556;28;20466;-67
2022/05/25 11:27:56;;;;;;;4.63;2.10;;;20.60;51.70;;;;;;5088247;28;20028;-68
2022/05/25 11:30:32;;;;;;;3.53;2.15;;;20.70;51.20;;;;;;5083512;28;20035;-67
2022/05/25 11:33:24;;;;;;;3.58;1.90;;;20.70;50.90;;;;;;5085684;28;20375;-68
2022/05/25 11:35:59;;;;;;;2.20;1.67;;;20.60;51.10;;;;;;5072423;28;20036;-66
2022/05/25 11:38:36;;;;;;;4.72;2.47;;;20.80;50.80;;;;;;5072498;28;20028;-68
2022/05/25 11:41:36;;;;;;;1.98;1.67;;;21.00;49.30;;;;;;5090074;28;20059;-67
2022/05/25 11:44:21;;;;;;;4.90;1.65;;;21.10;49.20;;;;;;5071032;28;20528;-68
2022/05/25 11:46:49;;;;;;;2.30;1.10;;;21.10;48.10;;;;;;5087001;28;20050;-68
2022/05/25 11:49:48;;;;;;;4.32;1.40;;;21.10;48.10;;;;;;5088492;28;20039;-68
2022/05/25 11:52:32;;;;;;;2.30;1.10;;;21.00;48.00;;;;;;5081415;28;20051;-68
2022/05/25 11:55:18;;;;;;;3.08;1.67;;;21.10;48.20;;;;;;5084529;28;20032;-67
2022/05/25 11:57:50;;;;;;;1.27;1.00;;;21.20;46.70;;;;;;5082925;28;20028;-67
2022/05/25 12:00:34;;;;;;;2.53;1.55;;;21.30;47.30;;;;;;5089137;28;20016;-68
2022/05/25 12:03:12;;;;;;;2.30;1.70;;;21.50;47.00;;;;;;5096639;28;20374;-68
2022/05/25 12:05:53;;;;;;;3.20;1.50;;;21.60;46.50;;;;;;5084167;28;20024;-67
2022/05/25 12:08:53;;;;;;;2.33;1.00;;;21.40;45.70;;;;;;5088997;28;20042;-68
2022/05/25 12:11:23;;;;;;;2.58;1.13;;;21.40;46.70;;;;;;5055456;28;20502;-68
2022/05/25 12:14:18;;;;;;;2.90;1.00;;;21.30;45.90;;;;;;5090301;28;20017;-67
2022/05/25 12:16:46;;;;;;;2.95;0.98;;;21.40;46.20;;;;;;5088230;28;20107;-67
2022/05/25 12:19:21;;;;;;;2.58;1.20;;;21.40;46.40;;;;;;5087369;28;20479;-67
2022/05/25 12:21:53;;;;;;;2.78;1.30;;;21.40;46.00;;;;;;5093765;28;20035;-68
2022/05/25 12:24:18;;;;;;;;;;;21.20;45.50;;;;;;5087489;28;20028;-67
2022/05/25 12:26:44;;;;;;;2.25;1.00;;;21.40;46.10;;;;;;5090756;28;19908;-67
2022/05/25 12:29:36;;;;;;;1.95;1.10;;;21.50;45.70;;;;;;5086497;28;20029;-67
2022/05/25 12:32:02;;;;;;;1.52;1.10;;;21.70;45.20;;;;;;5084628;28;20642;-67
2022/05/25 12:34:40;;;;;;;2.45;1.30;;;21.60;45.00;;;;;;5089715;28;20065;-67
2022/05/25 12:37:09;;;;;;;1.60;1.25;;;21.60;45.10;;;;;;5085436;28;20070;-68
2022/05/25 12:39:47;;;;;;;1.27;1.02;;;21.50;45.00;;;;;;5084205;28;20058;-67
2022/05/25 12:42:25;;;;;;;1.83;0.90;;;21.40;45.20;;;;;;5067440;28;20396;-68
2022/05/25 12:50:57;;;;;;;1.08;0.85;;;21.10;46.00;;;;;;5083993;28;20126;-68
2022/05/25 12:53:37;;;;;;;1.48;0.80;;;21.20;46.60;;;;;;5087689;28;20024;-68
2022/05/25 12:56:17;;;;;;;1.38;0.95;;;21.20;46.50;;;;;;5071285;28;20051;-69
2022/05/25 12:58:55;;;;;;;1.60;0.90;;;21.00;46.70;;;;;;5069360;28;20375;-68
2022/05/25 13:01:27;;;;;;;2.42;1.08;;;21.00;47.10;;;;;;5089108;28;20749;-68
2022/05/25 13:03:55;;;;;;;1.75;1.17;;;20.80;46.90;;;;;;5086379;28;20032;-68
2022/05/25 13:06:22;;;;;;;2.60;0.90;;;20.80;47.40;;;;;;5088381;28;20020;-67
2022/05/25 13:08:48;;;;;;;2.67;1.05;;;20.80;47.70;;;;;;5072489;28;20102;-67
2022/05/25 13:11:31;;;;;;;1.23;0.80;;;20.80;47.40;;;;;;5090837;28;20019;-67
2022/05/25 13:13:59;;;;;;;3.28;1.25;;;20.90;47.60;;;;;;5083742;28;20474;-67
2022/05/25 13:16:54;;;;;;;2.72;1.10;;;20.90;47.20;;;;;;5086791;28;20502;-68
2022/05/25 13:19:19;;;;;;;1.92;0.90;;;20.80;47.30;;;;;;5084677;28;20402;-68
2022/05/25 13:22:20;;;;;;;1.48;0.82;;;20.70;47.20;;;;;;5087795;28;20031;-68
2022/05/25 13:25:14;;;;;;;1.50;1.00;;;20.60;47.60;;;;;;5093241;28;20028;-68
2022/05/25 13:28:18;;;;;;;1.30;0.60;;;20.50;47.90;;;;;;5080774;28;20042;-68
2022/05/25 13:30:46;;;;;;;2.40;1.05;;;20.40;48.30;;;;;;5080113;28;20046;-68
2022/05/25 13:33:21;;;;;;;4.07;1.02;;;20.40;48.20;;;;;;5084236;28;20047;-68
2022/05/25 13:36:16;;;;;;;2.38;0.93;;;20.50;48.30;;;;;;5089086;28;20039;-68
2022/05/25 13:39:03;;;;;;;1.83;0.88;;;20.60;48.40;;;;;;5079299;28;20027;-68